createdAt,value
2017-09-21T00:00:02.630Z,0
2017-09-21T00:05:08.024Z,0
2017-09-21T00:10:14.082Z,0
2017-09-21T00:15:18.470Z,0
2017-09-21T00:20:23.859Z,0
2017-09-21T00:25:28.248Z,0
2017-09-21T00:30:33.970Z,0
2017-09-21T00:35:39.024Z,0
2017-09-21T00:40:43.409Z,0
2017-09-21T00:45:48.794Z,0
2017-09-21T00:50:53.518Z,0
2017-09-21T00:55:58.912Z,0
2017-09-21T01:01:04.971Z,0
2017-09-21T01:06:10.360Z,0
2017-09-21T01:11:14.747Z,0
2017-09-21T01:16:19.805Z,0
2017-09-21T01:21:24.858Z,0
2017-09-21T01:26:30.584Z,0
2017-09-21T01:31:35.974Z,0
2017-09-21T01:36:40.692Z,0
2017-09-21T01:41:46.083Z,0
2017-09-21T01:46:50.810Z,0
2017-09-21T01:51:55.860Z,0
2017-09-21T01:57:01.584Z,0
2017-09-21T02:02:06.306Z,0
2017-09-21T02:07:11.358Z,0
2017-09-21T02:12:16.745Z,0
2017-09-21T02:17:21.134Z,0
2017-09-21T02:22:26.189Z,0
2017-09-21T02:27:31.577Z,0
2017-09-21T02:32:36.968Z,0
2017-09-21T02:37:41.686Z,0
2017-09-21T02:42:47.410Z,0
2017-09-21T02:47:52.807Z,0
2017-09-21T02:52:58.530Z,0
2017-09-21T02:58:03.919Z,0
2017-09-21T03:03:09.645Z,0
2017-09-21T03:08:14.700Z,0
2017-09-21T03:13:19.757Z,0
2017-09-21T03:18:25.149Z,0
2017-09-21T03:23:30.539Z,0
2017-09-21T03:28:35.935Z,0
2017-09-21T03:33:40.991Z,0
2017-09-21T03:38:46.719Z,0
2017-09-21T03:43:52.109Z,0
2017-09-21T03:48:57.169Z,0
2017-09-21T03:54:02.549Z,0
2017-09-21T03:59:07.270Z,0
2017-09-21T04:04:11.656Z,0
2017-09-21T04:09:17.383Z,0
2017-09-21T04:14:22.103Z,0
2017-09-21T04:19:27.494Z,0
2017-09-21T04:24:32.216Z,0
2017-09-21T04:29:37.275Z,0
2017-09-21T04:34:42.001Z,0
2017-09-21T04:39:46.782Z,0
2017-09-21T04:44:51.506Z,0
2017-09-21T04:49:56.894Z,0
2017-09-21T04:55:02.491Z,0
2017-09-21T05:00:08.429Z,0
2017-09-21T05:05:14.517Z,0
2017-09-21T05:10:19.921Z,0
2017-09-21T05:15:25.314Z,0
2017-09-21T05:20:30.400Z,0
2017-09-21T05:25:36.123Z,0
2017-09-21T05:30:41.183Z,0
2017-09-21T05:35:46.242Z,0
2017-09-21T05:40:50.962Z,0
2017-09-21T05:45:56.352Z,0
2017-09-21T05:51:01.745Z,0
2017-09-21T05:56:07.470Z,0
2017-09-21T06:01:12.863Z,0
2017-09-21T06:06:18.590Z,0
2017-09-21T06:11:23.983Z,0
2017-09-21T06:16:29.037Z,0
2017-09-21T06:21:33.792Z,0
2017-09-21T06:26:39.485Z,1
2017-09-21T06:31:43.878Z,1
2017-09-21T06:36:49.596Z,2
2017-09-21T06:41:54.657Z,2
2017-09-21T06:47:00.388Z,3
2017-09-21T06:52:05.447Z,3
2017-09-21T06:57:10.172Z,2
2017-09-21T07:02:15.900Z,3
2017-09-21T07:07:20.626Z,2
2017-09-21T07:12:25.349Z,2
2017-09-21T07:17:30.068Z,2
2017-09-21T07:22:35.129Z,2
2017-09-21T07:27:40.190Z,3
2017-09-21T07:32:45.918Z,2
2017-09-21T07:37:50.980Z,3
2017-09-21T07:42:57.044Z,4
2017-09-21T07:48:02.102Z,6
2017-09-21T07:53:07.160Z,6
2017-09-21T07:58:12.215Z,4
2017-09-21T08:03:16.603Z,3
2017-09-21T08:08:22.329Z,2
2017-09-21T08:13:27.721Z,3
2017-09-21T08:18:32.442Z,4
2017-09-21T08:23:37.500Z,2
2017-09-21T08:28:42.894Z,2
2017-09-21T08:33:47.950Z,3
2017-09-21T08:38:52.674Z,3
2017-09-21T08:43:57.733Z,4
2017-09-21T08:49:02.124Z,3
2017-09-21T08:54:07.851Z,4
2017-09-21T08:59:13.242Z,5
2017-09-21T09:04:18.633Z,7
2017-09-21T09:09:23.356Z,6
2017-09-21T09:14:28.080Z,5
2017-09-21T09:19:33.136Z,5
2017-09-21T09:24:38.196Z,7
2017-09-21T09:29:43.590Z,7
2017-09-21T09:34:48.647Z,7
2017-09-21T09:39:54.041Z,10
2017-09-21T09:44:59.100Z,23
2017-09-21T09:50:04.162Z,25
2017-09-21T09:55:09.221Z,29
2017-09-21T10:00:14.618Z,19
2017-09-21T10:05:20.349Z,20
2017-09-21T10:10:25.412Z,19
2017-09-21T10:15:30.474Z,18
2017-09-21T10:20:35.542Z,16
2017-09-21T10:25:40.269Z,17
2017-09-21T10:30:44.995Z,16
2017-09-21T10:35:50.059Z,13
2017-09-21T10:40:55.120Z,14
2017-09-21T10:46:01.188Z,17
2017-09-21T10:51:05.919Z,16
2017-09-21T10:56:10.982Z,10
2017-09-21T11:01:16.714Z,8
2017-09-21T11:06:21.771Z,8
2017-09-21T11:11:27.372Z,9
2017-09-21T11:16:32.431Z,9
2017-09-21T11:21:36.828Z,9
2017-09-21T11:26:41.885Z,10
2017-09-21T11:31:47.616Z,9
2017-09-21T11:36:53.012Z,10
2017-09-21T11:41:57.409Z,14
2017-09-21T11:47:02.471Z,13
2017-09-21T11:52:07.533Z,12
2017-09-21T11:57:13.262Z,13
2017-09-21T12:02:18.327Z,12
2017-09-21T12:07:24.062Z,11
2017-09-21T12:12:29.156Z,5
2017-09-21T12:17:34.560Z,4
2017-09-21T12:22:39.618Z,3
2017-09-21T12:27:44.680Z,3
2017-09-21T12:32:50.079Z,3
2017-09-21T12:37:55.812Z,2
2017-09-21T12:43:00.557Z,2
2017-09-21T12:48:06.635Z,2
2017-09-21T12:53:11.698Z,8
2017-09-21T12:58:16.764Z,11
2017-09-21T13:03:21.834Z,11
2017-09-21T13:08:26.903Z,10
2017-09-21T13:13:32.319Z,9
2017-09-21T13:18:37.384Z,10
2017-09-21T13:23:42.107Z,8
2017-09-21T13:28:47.509Z,7
2017-09-21T13:33:52.907Z,7
2017-09-21T13:38:57.967Z,6
2017-09-21T13:44:02.695Z,5
2017-09-21T13:49:08.088Z,5
2017-09-21T13:54:13.150Z,6
2017-09-21T13:59:18.217Z,6
2017-09-21T14:04:23.287Z,6
2017-09-21T14:09:28.679Z,6
2017-09-21T14:14:33.406Z,6
2017-09-21T14:19:38.801Z,4
2017-09-21T14:24:43.196Z,4
2017-09-21T14:29:48.260Z,3
2017-09-21T14:34:53.656Z,2
2017-09-21T14:39:58.721Z,1
2017-09-21T14:45:03.782Z,1
2017-09-21T14:50:08.508Z,1
2017-09-21T14:55:12.900Z,1
2017-09-21T15:00:18.295Z,1
2017-09-21T15:05:23.358Z,1
2017-09-21T15:10:28.086Z,1
2017-09-21T15:15:33.813Z,1
2017-09-21T15:20:38.537Z,1
2017-09-21T15:25:43.602Z,1
2017-09-21T15:30:47.661Z,1
2017-09-21T15:35:53.391Z,1
2017-09-21T15:40:58.451Z,1
2017-09-21T15:46:03.849Z,1
2017-09-21T15:51:09.253Z,1
2017-09-21T15:56:13.641Z,1
2017-09-21T16:01:19.037Z,1
2017-09-21T16:06:23.451Z,0
2017-09-21T16:11:29.362Z,0
2017-09-21T16:16:34.425Z,0
2017-09-21T16:21:39.823Z,0
2017-09-21T16:26:44.896Z,0
2017-09-21T16:31:49.955Z,0
2017-09-21T16:36:55.689Z,0
2017-09-21T16:42:00.436Z,0
2017-09-21T16:47:05.167Z,0
2017-09-21T16:52:10.897Z,0
2017-09-21T16:57:15.634Z,0
2017-09-21T17:02:21.029Z,0
2017-09-21T17:07:26.090Z,0
2017-09-21T17:12:31.505Z,0
2017-09-21T17:17:36.253Z,0
2017-09-21T17:22:40.649Z,0
2017-09-21T17:27:45.382Z,0
2017-09-21T17:32:50.838Z,0
2017-09-21T17:37:55.610Z,0
2017-09-21T17:43:00.391Z,0
2017-09-21T17:48:06.483Z,0
2017-09-21T17:53:11.874Z,0
2017-09-21T17:58:16.608Z,0
2017-09-21T18:03:22.021Z,0
2017-09-21T18:08:26.774Z,0
2017-09-21T18:13:31.850Z,0
2017-09-21T18:18:36.920Z,0
2017-09-21T18:23:41.995Z,0
2017-09-21T18:28:47.059Z,0
2017-09-21T18:33:52.126Z,0
2017-09-21T18:38:57.203Z,0
2017-09-21T18:44:02.273Z,0
2017-09-21T18:49:07.674Z,0
2017-09-21T18:54:11.743Z,0
2017-09-21T18:59:17.146Z,0
2017-09-21T19:04:21.936Z,0
2017-09-21T19:09:27.342Z,0
2017-09-21T19:14:33.077Z,0
2017-09-21T19:19:37.483Z,0
2017-09-21T19:24:43.254Z,0
2017-09-21T19:29:49.034Z,0
2017-09-21T19:34:54.143Z,0
2017-09-21T19:39:58.886Z,0
2017-09-21T19:45:03.952Z,0
2017-09-21T19:50:09.353Z,0
2017-09-21T19:55:14.418Z,0
2017-09-21T20:00:19.483Z,0
2017-09-21T20:05:24.893Z,0
2017-09-21T20:10:29.958Z,0
2017-09-21T20:15:35.703Z,0
2017-09-21T20:20:40.838Z,0
2017-09-21T20:25:45.564Z,0
2017-09-21T20:30:51.293Z,0
2017-09-21T20:35:56.382Z,0
2017-09-21T20:41:01.160Z,0
2017-09-21T20:46:06.221Z,0
2017-09-21T20:51:11.617Z,0
2017-09-21T20:56:17.013Z,0
2017-09-21T21:01:21.410Z,0
2017-09-21T21:06:26.140Z,0
2017-09-21T21:11:30.865Z,0
2017-09-21T21:16:36.272Z,0
2017-09-21T21:21:41.671Z,0
2017-09-21T21:26:47.415Z,0
2017-09-21T21:31:51.819Z,0
2017-09-21T21:36:57.885Z,0
2017-09-21T21:42:03.949Z,0
2017-09-21T21:47:09.681Z,0
2017-09-21T21:52:14.942Z,0
2017-09-21T21:57:20.000Z,0
2017-09-21T22:02:24.732Z,0
2017-09-21T22:07:29.798Z,0
2017-09-21T22:12:34.855Z,0
2017-09-21T22:17:40.584Z,0
2017-09-21T22:22:45.637Z,0
2017-09-21T22:27:51.029Z,0
2017-09-21T22:32:56.422Z,0
2017-09-21T22:38:00.809Z,0
2017-09-21T22:43:06.201Z,0
2017-09-21T22:48:10.926Z,0
2017-09-21T22:53:15.653Z,0
2017-09-21T22:58:21.714Z,0
2017-09-21T23:03:26.771Z,0
2017-09-21T23:08:31.828Z,0
2017-09-21T23:13:36.886Z,0
2017-09-21T23:18:42.610Z,0
2017-09-21T23:23:48.003Z,0
2017-09-21T23:28:53.058Z,0
2017-09-21T23:33:57.112Z,0
2017-09-21T23:39:02.842Z,0
2017-09-21T23:44:08.905Z,0
2017-09-21T23:49:14.638Z,0
2017-09-21T23:54:20.032Z,0
2017-09-21T23:59:25.089Z,0
